sensor_id;sensor_type;location;lat;lon;timestamp;P1;durP1;ratioP1;P2;durP2;ratioP2
55172;SDS011;41061;52.822;6.860;2023-04-25T00:01:23;23.08;;;3.55;;
55172;SDS011;41061;52.822;6.860;2023-04-25T00:03:49;18.45;;;3.60;;
55172;SDS011;41061;52.822;6.860;2023-04-25T00:06:15;17.42;;;3.70;;
55172;SDS011;41061;52.822;6.860;2023-04-25T00:08:42;18.33;;;3.70;;
55172;SDS011;41061;52.822;6.860;2023-04-25T00:11:09;18.00;;;3.13;;
55172;SDS011;41061;52.822;6.860;2023-04-25T00:13:35;22.48;;;4.07;;
55172;SDS011;41061;52.822;6.860;2023-04-25T00:16:00;15.52;;;3.08;;
55172;SDS011;41061;52.822;6.860;2023-04-25T00:18:28;20.40;;;3.05;;
55172;SDS011;41061;52.822;6.860;2023-04-25T00:20:54;19.38;;;3.60;;
55172;SDS011;41061;52.822;6.860;2023-04-25T00:23:20;21.20;;;3.42;;
55172;SDS011;41061;52.822;6.860;2023-04-25T00:25:47;23.55;;;3.53;;
55172;SDS011;41061;52.822;6.860;2023-04-25T00:28:14;18.10;;;3.75;;
55172;SDS011;41061;52.822;6.860;2023-04-25T00:30:41;23.02;;;3.35;;
55172;SDS011;41061;52.822;6.860;2023-04-25T00:33:07;19.35;;;3.28;;
55172;SDS011;41061;52.822;6.860;2023-04-25T00:35:33;15.15;;;3.90;;
55172;SDS011;41061;52.822;6.860;2023-04-25T00:38:00;22.95;;;4.40;;
55172;SDS011;41061;52.822;6.860;2023-04-25T00:40:26;17.17;;;3.80;;
55172;SDS011;41061;52.822;6.860;2023-04-25T00:42:52;17.27;;;3.33;;
55172;SDS011;41061;52.822;6.860;2023-04-25T00:45:19;16.75;;;3.15;;
55172;SDS011;41061;52.822;6.860;2023-04-25T00:47:45;22.13;;;5.03;;
55172;SDS011;41061;52.822;6.860;2023-04-25T00:50:12;19.52;;;2.80;;
55172;SDS011;41061;52.822;6.860;2023-04-25T00:52:39;19.10;;;3.08;;
55172;SDS011;41061;52.822;6.860;2023-04-25T00:55:07;16.98;;;3.90;;
55172;SDS011;41061;52.822;6.860;2023-04-25T00:57:33;18.13;;;3.40;;
55172;SDS011;41061;52.822;6.860;2023-04-25T00:59:59;17.50;;;3.88;;
55172;SDS011;41061;52.822;6.860;2023-04-25T01:02:25;28.23;;;4.05;;
55172;SDS011;41061;52.822;6.860;2023-04-25T01:04:52;16.50;;;3.65;;
55172;SDS011;41061;52.822;6.860;2023-04-25T01:07:18;18.10;;;3.35;;
55172;SDS011;41061;52.822;6.860;2023-04-25T01:09:45;24.67;;;4.85;;
55172;SDS011;41061;52.822;6.860;2023-04-25T01:12:11;12.75;;;3.33;;
55172;SDS011;41061;52.822;6.860;2023-04-25T01:14:37;22.92;;;3.63;;
55172;SDS011;41061;52.822;6.860;2023-04-25T01:17:03;22.83;;;4.22;;
55172;SDS011;41061;52.822;6.860;2023-04-25T01:19:29;12.68;;;2.80;;
55172;SDS011;41061;52.822;6.860;2023-04-25T01:21:55;15.65;;;3.53;;
55172;SDS011;41061;52.822;6.860;2023-04-25T01:24:21;16.13;;;3.58;;
55172;SDS011;41061;52.822;6.860;2023-04-25T01:26:47;15.63;;;3.65;;
55172;SDS011;41061;52.822;6.860;2023-04-25T01:29:20;17.38;;;4.30;;
55172;SDS011;41061;52.822;6.860;2023-04-25T01:31:46;15.30;;;2.95;;
55172;SDS011;41061;52.822;6.860;2023-04-25T01:34:12;17.67;;;3.33;;
55172;SDS011;41061;52.822;6.860;2023-04-25T01:36:38;17.23;;;3.15;;
55172;SDS011;41061;52.822;6.860;2023-04-25T01:39:04;15.07;;;3.00;;
55172;SDS011;41061;52.822;6.860;2023-04-25T01:41:30;16.08;;;3.17;;
55172;SDS011;41061;52.822;6.860;2023-04-25T01:43:56;19.30;;;3.00;;
55172;SDS011;41061;52.822;6.860;2023-04-25T01:46:22;20.70;;;3.60;;
55172;SDS011;41061;52.822;6.860;2023-04-25T01:48:48;13.88;;;3.22;;
55172;SDS011;41061;52.822;6.860;2023-04-25T01:51:13;15.23;;;2.67;;
55172;SDS011;41061;52.822;6.860;2023-04-25T01:53:40;15.75;;;3.40;;
55172;SDS011;41061;52.822;6.860;2023-04-25T01:56:06;18.85;;;2.97;;
55172;SDS011;41061;52.822;6.860;2023-04-25T01:58:32;20.40;;;3.30;;
55172;SDS011;41061;52.822;6.860;2023-04-25T02:00:57;15.45;;;3.38;;
55172;SDS011;41061;52.822;6.860;2023-04-25T02:03:23;17.40;;;3.00;;
55172;SDS011;41061;52.822;6.860;2023-04-25T02:05:49;15.55;;;3.30;;
55172;SDS011;41061;52.822;6.860;2023-04-25T02:08:15;18.02;;;3.20;;
55172;SDS011;41061;52.822;6.860;2023-04-25T02:10:42;27.73;;;5.82;;
55172;SDS011;41061;52.822;6.860;2023-04-25T02:13:07;22.45;;;3.13;;
55172;SDS011;41061;52.822;6.860;2023-04-25T02:15:33;18.55;;;2.80;;
55172;SDS011;41061;52.822;6.860;2023-04-25T02:17:59;16.80;;;3.53;;
55172;SDS011;41061;52.822;6.860;2023-04-25T02:20:25;17.80;;;3.58;;
55172;SDS011;41061;52.822;6.860;2023-04-25T02:22:52;20.10;;;4.18;;
55172;SDS011;41061;52.822;6.860;2023-04-25T02:25:18;16.77;;;3.40;;
55172;SDS011;41061;52.822;6.860;2023-04-25T02:27:45;20.50;;;3.40;;
55172;SDS011;41061;52.822;6.860;2023-04-25T02:30:12;20.83;;;3.88;;
55172;SDS011;41061;52.822;6.860;2023-04-25T02:32:38;20.83;;;3.40;;
55172;SDS011;41061;52.822;6.860;2023-04-25T02:35:04;16.58;;;3.00;;
55172;SDS011;41061;52.822;6.860;2023-04-25T02:37:31;14.98;;;3.08;;
55172;SDS011;41061;52.822;6.860;2023-04-25T02:39:58;18.17;;;4.22;;
55172;SDS011;41061;52.822;6.860;2023-04-25T02:42:23;17.30;;;3.08;;
55172;SDS011;41061;52.822;6.860;2023-04-25T02:44:49;21.88;;;3.05;;
55172;SDS011;41061;52.822;6.860;2023-04-25T02:47:15;16.98;;;3.30;;
55172;SDS011;41061;52.822;6.860;2023-04-25T02:49:41;19.98;;;3.00;;
55172;SDS011;41061;52.822;6.860;2023-04-25T02:52:06;17.08;;;3.28;;
55172;SDS011;41061;52.822;6.860;2023-04-25T02:54:32;20.50;;;3.25;;
55172;SDS011;41061;52.822;6.860;2023-04-25T02:56:58;14.05;;;3.35;;
55172;SDS011;41061;52.822;6.860;2023-04-25T02:59:23;15.75;;;3.20;;
55172;SDS011;41061;52.822;6.860;2023-04-25T03:01:49;16.73;;;3.38;;
55172;SDS011;41061;52.822;6.860;2023-04-25T03:04:15;12.80;;;3.63;;
55172;SDS011;41061;52.822;6.860;2023-04-25T03:06:40;19.95;;;3.72;;
55172;SDS011;41061;52.822;6.860;2023-04-25T03:09:06;16.27;;;2.97;;
55172;SDS011;41061;52.822;6.860;2023-04-25T03:11:32;17.73;;;3.10;;
55172;SDS011;41061;52.822;6.860;2023-04-25T03:13:57;15.00;;;2.88;;
55172;SDS011;41061;52.822;6.860;2023-04-25T03:16:23;15.75;;;2.72;;
55172;SDS011;41061;52.822;6.860;2023-04-25T03:18:49;14.43;;;3.03;;
55172;SDS011;41061;52.822;6.860;2023-04-25T03:21:16;14.02;;;3.05;;
55172;SDS011;41061;52.822;6.860;2023-04-25T03:23:42;18.65;;;3.17;;
55172;SDS011;41061;52.822;6.860;2023-04-25T03:26:07;13.60;;;2.60;;
55172;SDS011;41061;52.822;6.860;2023-04-25T03:28:33;16.92;;;3.75;;
55172;SDS011;41061;52.822;6.860;2023-04-25T03:30:59;24.08;;;4.53;;
55172;SDS011;41061;52.822;6.860;2023-04-25T03:33:24;16.25;;;3.33;;
55172;SDS011;41061;52.822;6.860;2023-04-25T03:35:51;19.65;;;2.92;;
55172;SDS011;41061;52.822;6.860;2023-04-25T03:38:16;22.15;;;3.75;;
55172;SDS011;41061;52.822;6.860;2023-04-25T03:40:42;17.15;;;2.97;;
55172;SDS011;41061;52.822;6.860;2023-04-25T03:43:08;12.73;;;2.55;;
55172;SDS011;41061;52.822;6.860;2023-04-25T03:45:34;14.30;;;2.50;;
55172;SDS011;41061;52.822;6.860;2023-04-25T03:47:59;15.43;;;3.50;;
55172;SDS011;41061;52.822;6.860;2023-04-25T03:50:25;17.33;;;3.35;;
55172;SDS011;41061;52.822;6.860;2023-04-25T03:52:51;17.00;;;2.90;;
55172;SDS011;41061;52.822;6.860;2023-04-25T03:55:17;14.63;;;2.50;;
55172;SDS011;41061;52.822;6.860;2023-04-25T03:57:42;13.45;;;2.90;;
55172;SDS011;41061;52.822;6.860;2023-04-25T04:00:08;15.80;;;2.60;;
55172;SDS011;41061;52.822;6.860;2023-04-25T04:02:35;17.33;;;3.13;;
55172;SDS011;41061;52.822;6.860;2023-04-25T04:05:02;17.15;;;2.42;;
55172;SDS011;41061;52.822;6.860;2023-04-25T04:07:29;15.23;;;2.63;;
55172;SDS011;41061;52.822;6.860;2023-04-25T04:09:54;17.60;;;2.70;;
55172;SDS011;41061;52.822;6.860;2023-04-25T04:12:20;18.20;;;2.50;;
55172;SDS011;41061;52.822;6.860;2023-04-25T04:14:46;20.50;;;2.75;;
55172;SDS011;41061;52.822;6.860;2023-04-25T04:17:11;10.90;;;2.55;;
55172;SDS011;41061;52.822;6.860;2023-04-25T04:19:37;10.98;;;1.92;;
55172;SDS011;41061;52.822;6.860;2023-04-25T04:22:03;11.20;;;2.20;;
55172;SDS011;41061;52.822;6.860;2023-04-25T04:24:28;14.57;;;2.20;;
55172;SDS011;41061;52.822;6.860;2023-04-25T04:26:54;8.93;;;2.05;;
55172;SDS011;41061;52.822;6.860;2023-04-25T04:29:21;14.52;;;2.08;;
55172;SDS011;41061;52.822;6.860;2023-04-25T04:31:50;17.92;;;2.50;;
55172;SDS011;41061;52.822;6.860;2023-04-25T04:34:17;12.73;;;2.88;;
55172;SDS011;41061;52.822;6.860;2023-04-25T04:36:43;11.23;;;1.70;;
55172;SDS011;41061;52.822;6.860;2023-04-25T04:39:13;16.88;;;2.00;;
55172;SDS011;41061;52.822;6.860;2023-04-25T04:41:39;11.95;;;1.48;;
55172;SDS011;41061;52.822;6.860;2023-04-25T04:44:05;6.10;;;1.50;;
55172;SDS011;41061;52.822;6.860;2023-04-25T04:46:35;12.77;;;1.85;;
55172;SDS011;41061;52.822;6.860;2023-04-25T04:49:08;7.75;;;1.65;;
55172;SDS011;41061;52.822;6.860;2023-04-25T04:51:34;7.00;;;2.03;;
55172;SDS011;41061;52.822;6.860;2023-04-25T04:54:01;9.43;;;3.28;;
55172;SDS011;41061;52.822;6.860;2023-04-25T04:56:28;8.93;;;1.42;;
55172;SDS011;41061;52.822;6.860;2023-04-25T04:58:56;7.85;;;1.88;;
55172;SDS011;41061;52.822;6.860;2023-04-25T05:01:22;8.05;;;2.55;;
55172;SDS011;41061;52.822;6.860;2023-04-25T05:03:48;7.10;;;1.38;;
55172;SDS011;41061;52.822;6.860;2023-04-25T05:06:14;12.80;;;1.35;;
55172;SDS011;41061;52.822;6.860;2023-04-25T05:08:41;8.07;;;1.67;;
55172;SDS011;41061;52.822;6.860;2023-04-25T05:11:07;9.55;;;1.25;;
55172;SDS011;41061;52.822;6.860;2023-04-25T05:13:32;10.27;;;2.30;;
55172;SDS011;41061;52.822;6.860;2023-04-25T05:15:58;15.52;;;2.00;;
55172;SDS011;41061;52.822;6.860;2023-04-25T05:18:24;9.73;;;1.60;;
55172;SDS011;41061;52.822;6.860;2023-04-25T05:20:50;12.48;;;2.00;;
55172;SDS011;41061;52.822;6.860;2023-04-25T05:23:15;7.68;;;1.48;;
55172;SDS011;41061;52.822;6.860;2023-04-25T05:25:41;8.68;;;2.45;;
55172;SDS011;41061;52.822;6.860;2023-04-25T05:28:07;7.45;;;1.30;;
55172;SDS011;41061;52.822;6.860;2023-04-25T05:30:33;10.45;;;1.70;;
55172;SDS011;41061;52.822;6.860;2023-04-25T05:32:59;7.53;;;1.77;;
55172;SDS011;41061;52.822;6.860;2023-04-25T05:35:26;7.50;;;1.42;;
55172;SDS011;41061;52.822;6.860;2023-04-25T05:37:52;7.47;;;1.45;;
55172;SDS011;41061;52.822;6.860;2023-04-25T05:40:17;4.68;;;1.40;;
55172;SDS011;41061;52.822;6.860;2023-04-25T05:42:43;7.07;;;1.33;;
55172;SDS011;41061;52.822;6.860;2023-04-25T05:45:09;9.23;;;1.40;;
55172;SDS011;41061;52.822;6.860;2023-04-25T05:47:35;7.07;;;1.95;;
55172;SDS011;41061;52.822;6.860;2023-04-25T05:50:01;12.85;;;1.73;;
55172;SDS011;41061;52.822;6.860;2023-04-25T05:52:27;4.75;;;1.17;;
55172;SDS011;41061;52.822;6.860;2023-04-25T05:54:52;5.68;;;1.27;;
55172;SDS011;41061;52.822;6.860;2023-04-25T05:57:25;7.25;;;1.73;;
55172;SDS011;41061;52.822;6.860;2023-04-25T05:59:51;7.72;;;2.15;;
55172;SDS011;41061;52.822;6.860;2023-04-25T06:02:18;8.43;;;1.30;;
55172;SDS011;41061;52.822;6.860;2023-04-25T06:04:45;6.30;;;1.52;;
55172;SDS011;41061;52.822;6.860;2023-04-25T06:07:11;8.10;;;1.38;;
55172;SDS011;41061;52.822;6.860;2023-04-25T06:09:38;9.20;;;2.80;;
55172;SDS011;41061;52.822;6.860;2023-04-25T06:12:05;9.20;;;1.42;;
55172;SDS011;41061;52.822;6.860;2023-04-25T06:14:31;16.15;;;2.45;;
55172;SDS011;41061;52.822;6.860;2023-04-25T06:16:57;10.73;;;1.67;;
55172;SDS011;41061;52.822;6.860;2023-04-25T06:19:22;13.13;;;2.25;;
55172;SDS011;41061;52.822;6.860;2023-04-25T06:21:48;10.73;;;1.85;;
55172;SDS011;41061;52.822;6.860;2023-04-25T06:24:14;7.80;;;1.50;;
55172;SDS011;41061;52.822;6.860;2023-04-25T06:26:39;9.40;;;1.73;;
55172;SDS011;41061;52.822;6.860;2023-04-25T06:29:05;10.20;;;1.98;;
55172;SDS011;41061;52.822;6.860;2023-04-25T06:31:31;9.75;;;2.45;;
55172;SDS011;41061;52.822;6.860;2023-04-25T06:34:00;14.18;;;3.05;;
55172;SDS011;41061;52.822;6.860;2023-04-25T06:36:26;11.60;;;2.08;;
55172;SDS011;41061;52.822;6.860;2023-04-25T06:38:52;17.65;;;2.30;;
55172;SDS011;41061;52.822;6.860;2023-04-25T06:41:19;14.75;;;2.00;;
55172;SDS011;41061;52.822;6.860;2023-04-25T06:43:45;20.17;;;2.47;;
55172;SDS011;41061;52.822;6.860;2023-04-25T06:46:11;12.38;;;1.67;;
55172;SDS011;41061;52.822;6.860;2023-04-25T06:48:37;16.40;;;2.22;;
55172;SDS011;41061;52.822;6.860;2023-04-25T06:51:03;16.45;;;2.83;;
55172;SDS011;41061;52.822;6.860;2023-04-25T06:53:28;11.60;;;2.20;;
55172;SDS011;41061;52.822;6.860;2023-04-25T06:55:54;9.68;;;1.42;;
55172;SDS011;41061;52.822;6.860;2023-04-25T06:58:20;11.40;;;2.10;;
55172;SDS011;41061;52.822;6.860;2023-04-25T07:00:46;14.38;;;1.50;;
55172;SDS011;41061;52.822;6.860;2023-04-25T07:03:12;9.95;;;1.88;;
55172;SDS011;41061;52.822;6.860;2023-04-25T07:05:37;8.82;;;1.60;;
55172;SDS011;41061;52.822;6.860;2023-04-25T07:08:03;7.53;;;1.60;;
55172;SDS011;41061;52.822;6.860;2023-04-25T07:10:29;11.82;;;1.80;;
55172;SDS011;41061;52.822;6.860;2023-04-25T07:12:54;9.48;;;1.50;;
55172;SDS011;41061;52.822;6.860;2023-04-25T07:15:20;13.82;;;1.73;;
55172;SDS011;41061;52.822;6.860;2023-04-25T07:17:46;7.10;;;1.33;;
55172;SDS011;41061;52.822;6.860;2023-04-25T07:20:11;8.30;;;1.67;;
55172;SDS011;41061;52.822;6.860;2023-04-25T07:22:37;9.07;;;1.38;;
55172;SDS011;41061;52.822;6.860;2023-04-25T07:25:03;6.25;;;1.75;;
55172;SDS011;41061;52.822;6.860;2023-04-25T07:27:29;16.13;;;1.65;;
55172;SDS011;41061;52.822;6.860;2023-04-25T07:29:55;9.73;;;1.23;;
55172;SDS011;41061;52.822;6.860;2023-04-25T07:32:21;8.98;;;1.70;;
55172;SDS011;41061;52.822;6.860;2023-04-25T07:34:47;8.50;;;1.13;;
55172;SDS011;41061;52.822;6.860;2023-04-25T07:37:13;5.80;;;1.50;;
55172;SDS011;41061;52.822;6.860;2023-04-25T07:39:39;6.38;;;1.40;;
55172;SDS011;41061;52.822;6.860;2023-04-25T07:42:05;12.05;;;1.75;;
55172;SDS011;41061;52.822;6.860;2023-04-25T07:44:33;8.02;;;1.27;;
55172;SDS011;41061;52.822;6.860;2023-04-25T07:47:07;10.55;;;1.73;;
55172;SDS011;41061;52.822;6.860;2023-04-25T07:49:33;7.15;;;1.17;;
55172;SDS011;41061;52.822;6.860;2023-04-25T07:52:00;7.97;;;1.45;;
55172;SDS011;41061;52.822;6.860;2023-04-25T07:54:26;6.65;;;1.42;;
55172;SDS011;41061;52.822;6.860;2023-04-25T07:56:52;7.60;;;1.33;;
55172;SDS011;41061;52.822;6.860;2023-04-25T07:59:18;10.98;;;2.00;;
55172;SDS011;41061;52.822;6.860;2023-04-25T08:01:43;7.50;;;1.40;;
55172;SDS011;41061;52.822;6.860;2023-04-25T08:04:09;9.43;;;1.48;;
55172;SDS011;41061;52.822;6.860;2023-04-25T08:06:35;6.80;;;1.15;;
55172;SDS011;41061;52.822;6.860;2023-04-25T08:09:01;6.65;;;1.25;;
55172;SDS011;41061;52.822;6.860;2023-04-25T08:11:28;13.60;;;1.30;;
55172;SDS011;41061;52.822;6.860;2023-04-25T08:13:54;8.70;;;1.70;;
55172;SDS011;41061;52.822;6.860;2023-04-25T08:16:19;6.88;;;1.85;;
55172;SDS011;41061;52.822;6.860;2023-04-25T08:18:45;7.30;;;1.23;;
55172;SDS011;41061;52.822;6.860;2023-04-25T08:21:11;6.55;;;1.20;;
55172;SDS011;41061;52.822;6.860;2023-04-25T08:23:37;7.25;;;1.63;;
55172;SDS011;41061;52.822;6.860;2023-04-25T08:26:03;5.75;;;1.27;;
55172;SDS011;41061;52.822;6.860;2023-04-25T08:28:30;8.18;;;1.10;;
55172;SDS011;41061;52.822;6.860;2023-04-25T08:30:56;6.82;;;1.13;;
55172;SDS011;41061;52.822;6.860;2023-04-25T08:33:21;3.38;;;1.13;;
55172;SDS011;41061;52.822;6.860;2023-04-25T08:35:47;8.20;;;1.15;;
55172;SDS011;41061;52.822;6.860;2023-04-25T08:38:13;10.43;;;1.48;;
55172;SDS011;41061;52.822;6.860;2023-04-25T08:40:39;11.60;;;1.40;;
55172;SDS011;41061;52.822;6.860;2023-04-25T08:43:06;6.40;;;1.20;;
55172;SDS011;41061;52.822;6.860;2023-04-25T08:45:38;8.30;;;1.13;;
55172;SDS011;41061;52.822;6.860;2023-04-25T08:48:10;4.85;;;0.88;;
55172;SDS011;41061;52.822;6.860;2023-04-25T08:50:44;5.27;;;1.10;;
55172;SDS011;41061;52.822;6.860;2023-04-25T08:53:15;5.65;;;1.00;;
55172;SDS011;41061;52.822;6.860;2023-04-25T08:55:45;7.15;;;1.00;;
55172;SDS011;41061;52.822;6.860;2023-04-25T08:58:12;7.80;;;1.45;;
55172;SDS011;41061;52.822;6.860;2023-04-25T09:00:38;5.07;;;0.93;;
55172;SDS011;41061;52.822;6.860;2023-04-25T09:03:04;7.65;;;1.23;;
55172;SDS011;41061;52.822;6.860;2023-04-25T09:05:32;5.65;;;1.08;;
55172;SDS011;41061;52.822;6.860;2023-04-25T09:07:58;5.97;;;1.00;;
55172;SDS011;41061;52.822;6.860;2023-04-25T09:10:26;5.72;;;1.08;;
55172;SDS011;41061;52.822;6.860;2023-04-25T09:13:02;5.63;;;1.30;;
55172;SDS011;41061;52.822;6.860;2023-04-25T09:15:40;6.50;;;1.35;;
55172;SDS011;41061;52.822;6.860;2023-04-25T09:20:54;8.63;;;1.30;;
55172;SDS011;41061;52.822;6.860;2023-04-25T09:23:22;7.45;;;1.20;;
55172;SDS011;41061;52.822;6.860;2023-04-25T09:25:49;7.63;;;1.17;;
55172;SDS011;41061;52.822;6.860;2023-04-25T09:28:25;6.85;;;1.48;;
55172;SDS011;41061;52.822;6.860;2023-04-25T09:30:56;6.35;;;1.00;;
55172;SDS011;41061;52.822;6.860;2023-04-25T09:33:26;3.25;;;0.90;;
55172;SDS011;41061;52.822;6.860;2023-04-25T09:35:54;4.22;;;0.80;;
55172;SDS011;41061;52.822;6.860;2023-04-25T09:38:41;3.97;;;1.00;;
55172;SDS011;41061;52.822;6.860;2023-04-25T09:41:11;6.40;;;0.82;;
55172;SDS011;41061;52.822;6.860;2023-04-25T09:43:37;7.95;;;1.40;;
55172;SDS011;41061;52.822;6.860;2023-04-25T09:46:07;2.85;;;0.80;;
55172;SDS011;41061;52.822;6.860;2023-04-25T09:48:34;5.43;;;1.52;;
55172;SDS011;41061;52.822;6.860;2023-04-25T09:53:37;3.40;;;0.68;;
55172;SDS011;41061;52.822;6.860;2023-04-25T09:56:05;7.85;;;0.70;;
55172;SDS011;41061;52.822;6.860;2023-04-25T09:58:33;7.20;;;0.90;;
55172;SDS011;41061;52.822;6.860;2023-04-25T10:01:01;3.65;;;0.70;;
55172;SDS011;41061;52.822;6.860;2023-04-25T10:03:32;3.08;;;0.70;;
55172;SDS011;41061;52.822;6.860;2023-04-25T10:06:08;6.65;;;0.90;;
55172;SDS011;41061;52.822;6.860;2023-04-25T10:08:39;4.68;;;0.90;;
55172;SDS011;41061;52.822;6.860;2023-04-25T10:11:08;5.38;;;1.00;;
55172;SDS011;41061;52.822;6.860;2023-04-25T10:13:34;2.15;;;0.80;;
55172;SDS011;41061;52.822;6.860;2023-04-25T10:16:03;4.78;;;0.75;;
55172;SDS011;41061;52.822;6.860;2023-04-25T10:18:30;8.25;;;2.38;;
55172;SDS011;41061;52.822;6.860;2023-04-25T10:21:01;5.90;;;0.90;;
55172;SDS011;41061;52.822;6.860;2023-04-25T10:23:29;5.00;;;1.20;;
55172;SDS011;41061;52.822;6.860;2023-04-25T10:25:56;7.05;;;1.20;;
55172;SDS011;41061;52.822;6.860;2023-04-25T10:28:22;9.15;;;1.13;;
55172;SDS011;41061;52.822;6.860;2023-04-25T10:31:09;3.03;;;1.08;;
55172;SDS011;41061;52.822;6.860;2023-04-25T10:33:38;9.75;;;1.67;;
55172;SDS011;41061;52.822;6.860;2023-04-25T10:36:13;6.38;;;0.80;;
55172;SDS011;41061;52.822;6.860;2023-04-25T10:38:44;3.30;;;0.88;;
55172;SDS011;41061;52.822;6.860;2023-04-25T10:41:11;2.53;;;0.70;;
55172;SDS011;41061;52.822;6.860;2023-04-25T10:43:47;4.70;;;1.10;;
55172;SDS011;41061;52.822;6.860;2023-04-25T10:48:50;2.38;;;0.68;;
55172;SDS011;41061;52.822;6.860;2023-04-25T10:51:24;3.92;;;1.42;;
55172;SDS011;41061;52.822;6.860;2023-04-25T10:54:12;3.22;;;0.77;;
55172;SDS011;41061;52.822;6.860;2023-04-25T10:56:38;7.10;;;1.10;;
55172;SDS011;41061;52.822;6.860;2023-04-25T10:59:07;5.53;;;1.10;;
55172;SDS011;41061;52.822;6.860;2023-04-25T11:01:37;8.32;;;1.20;;
55172;SDS011;41061;52.822;6.860;2023-04-25T11:04:19;11.15;;;1.38;;
55172;SDS011;41061;52.822;6.860;2023-04-25T11:09:47;6.43;;;1.33;;
55172;SDS011;41061;52.822;6.860;2023-04-25T11:12:14;11.27;;;2.67;;
55172;SDS011;41061;52.822;6.860;2023-04-25T11:14:41;6.65;;;1.33;;
55172;SDS011;41061;52.822;6.860;2023-04-25T11:17:07;5.63;;;1.60;;
55172;SDS011;41061;52.822;6.860;2023-04-25T11:19:32;7.07;;;1.00;;
55172;SDS011;41061;52.822;6.860;2023-04-25T11:21:59;9.90;;;1.85;;
55172;SDS011;41061;52.822;6.860;2023-04-25T11:26:55;9.90;;;1.48;;
55172;SDS011;41061;52.822;6.860;2023-04-25T11:29:23;6.82;;;1.23;;
55172;SDS011;41061;52.822;6.860;2023-04-25T11:31:49;7.75;;;1.55;;
55172;SDS011;41061;52.822;6.860;2023-04-25T11:34:18;7.50;;;1.67;;
55172;SDS011;41061;52.822;6.860;2023-04-25T11:36:45;5.72;;;1.00;;
55172;SDS011;41061;52.822;6.860;2023-04-25T11:39:11;6.57;;;1.02;;
55172;SDS011;41061;52.822;6.860;2023-04-25T11:41:41;3.22;;;1.05;;
55172;SDS011;41061;52.822;6.860;2023-04-25T11:44:07;5.05;;;1.00;;
55172;SDS011;41061;52.822;6.860;2023-04-25T11:46:36;3.65;;;0.98;;
55172;SDS011;41061;52.822;6.860;2023-04-25T11:49:02;2.97;;;0.70;;
55172;SDS011;41061;52.822;6.860;2023-04-25T11:51:29;2.15;;;0.65;;
55172;SDS011;41061;52.822;6.860;2023-04-25T11:53:56;4.95;;;0.80;;
55172;SDS011;41061;52.822;6.860;2023-04-25T11:56:22;7.03;;;1.13;;
55172;SDS011;41061;52.822;6.860;2023-04-25T11:58:58;5.85;;;1.35;;
55172;SDS011;41061;52.822;6.860;2023-04-25T12:01:32;4.80;;;0.90;;
55172;SDS011;41061;52.822;6.860;2023-04-25T12:04:12;6.18;;;0.90;;
55172;SDS011;41061;52.822;6.860;2023-04-25T12:06:40;5.72;;;0.88;;
55172;SDS011;41061;52.822;6.860;2023-04-25T12:09:07;5.47;;;1.40;;
55172;SDS011;41061;52.822;6.860;2023-04-25T12:14:08;12.93;;;1.42;;
55172;SDS011;41061;52.822;6.860;2023-04-25T12:16:45;12.23;;;1.00;;
55172;SDS011;41061;52.822;6.860;2023-04-25T12:19:18;4.28;;;1.27;;
55172;SDS011;41061;52.822;6.860;2023-04-25T12:21:45;4.80;;;1.00;;
55172;SDS011;41061;52.822;6.860;2023-04-25T12:24:12;7.43;;;1.40;;
55172;SDS011;41061;52.822;6.860;2023-04-25T12:26:52;8.20;;;1.80;;
55172;SDS011;41061;52.822;6.860;2023-04-25T12:29:24;8.30;;;1.20;;
55172;SDS011;41061;52.822;6.860;2023-04-25T12:31:51;5.78;;;1.30;;
55172;SDS011;41061;52.822;6.860;2023-04-25T12:34:21;6.72;;;1.40;;
55172;SDS011;41061;52.822;6.860;2023-04-25T12:36:48;6.07;;;1.55;;
55172;SDS011;41061;52.822;6.860;2023-04-25T12:39:15;7.28;;;1.63;;
55172;SDS011;41061;52.822;6.860;2023-04-25T12:41:42;9.88;;;1.30;;
55172;SDS011;41061;52.822;6.860;2023-04-25T12:44:08;5.60;;;1.08;;
55172;SDS011;41061;52.822;6.860;2023-04-25T12:46:33;7.03;;;1.20;;
55172;SDS011;41061;52.822;6.860;2023-04-25T12:49:00;7.75;;;1.40;;
55172;SDS011;41061;52.822;6.860;2023-04-25T12:51:28;3.75;;;1.02;;
55172;SDS011;41061;52.822;6.860;2023-04-25T12:53:54;4.45;;;1.30;;
55172;SDS011;41061;52.822;6.860;2023-04-25T12:56:20;2.78;;;1.25;;
55172;SDS011;41061;52.822;6.860;2023-04-25T12:58:46;4.32;;;0.70;;
55172;SDS011;41061;52.822;6.860;2023-04-25T13:01:13;8.00;;;1.92;;
55172;SDS011;41061;52.822;6.860;2023-04-25T13:03:39;8.40;;;1.48;;
55172;SDS011;41061;52.822;6.860;2023-04-25T13:06:06;6.78;;;1.10;;
55172;SDS011;41061;52.822;6.860;2023-04-25T13:08:32;8.40;;;1.35;;
55172;SDS011;41061;52.822;6.860;2023-04-25T13:10:58;6.53;;;1.30;;
55172;SDS011;41061;52.822;6.860;2023-04-25T13:13:23;8.65;;;1.30;;
55172;SDS011;41061;52.822;6.860;2023-04-25T13:15:49;8.52;;;1.45;;
55172;SDS011;41061;52.822;6.860;2023-04-25T13:18:15;7.28;;;1.45;;
55172;SDS011;41061;52.822;6.860;2023-04-25T13:20:41;6.57;;;0.95;;
55172;SDS011;41061;52.822;6.860;2023-04-25T13:23:06;3.10;;;0.80;;
55172;SDS011;41061;52.822;6.860;2023-04-25T13:25:32;5.28;;;1.35;;
55172;SDS011;41061;52.822;6.860;2023-04-25T13:27:58;3.72;;;0.90;;
55172;SDS011;41061;52.822;6.860;2023-04-25T13:30:23;4.45;;;1.10;;
55172;SDS011;41061;52.822;6.860;2023-04-25T13:32:49;3.50;;;0.98;;
55172;SDS011;41061;52.822;6.860;2023-04-25T13:35:16;4.65;;;1.00;;
55172;SDS011;41061;52.822;6.860;2023-04-25T13:37:42;6.28;;;1.40;;
55172;SDS011;41061;52.822;6.860;2023-04-25T13:40:08;5.05;;;1.05;;
55172;SDS011;41061;52.822;6.860;2023-04-25T13:42:39;7.28;;;1.08;;
55172;SDS011;41061;52.822;6.860;2023-04-25T13:45:06;6.40;;;1.27;;
55172;SDS011;41061;52.822;6.860;2023-04-25T13:47:32;6.78;;;1.23;;
55172;SDS011;41061;52.822;6.860;2023-04-25T13:49:58;7.40;;;1.02;;
55172;SDS011;41061;52.822;6.860;2023-04-25T13:52:24;6.40;;;1.00;;
55172;SDS011;41061;52.822;6.860;2023-04-25T13:54:50;5.05;;;1.08;;
55172;SDS011;41061;52.822;6.860;2023-04-25T13:57:17;6.47;;;1.17;;
55172;SDS011;41061;52.822;6.860;2023-04-25T13:59:42;4.97;;;1.30;;
55172;SDS011;41061;52.822;6.860;2023-04-25T14:02:08;8.15;;;1.35;;
55172;SDS011;41061;52.822;6.860;2023-04-25T14:04:35;5.07;;;0.95;;
55172;SDS011;41061;52.822;6.860;2023-04-25T14:07:00;4.10;;;1.00;;
55172;SDS011;41061;52.822;6.860;2023-04-25T14:09:27;5.20;;;0.90;;
55172;SDS011;41061;52.822;6.860;2023-04-25T14:11:53;2.60;;;0.70;;
55172;SDS011;41061;52.822;6.860;2023-04-25T14:14:19;4.30;;;1.83;;
55172;SDS011;41061;52.822;6.860;2023-04-25T14:16:46;4.68;;;0.90;;
55172;SDS011;41061;52.822;6.860;2023-04-25T14:19:16;4.25;;;0.93;;
55172;SDS011;41061;52.822;6.860;2023-04-25T14:21:43;6.07;;;0.98;;
55172;SDS011;41061;52.822;6.860;2023-04-25T14:24:09;4.18;;;0.88;;
55172;SDS011;41061;52.822;6.860;2023-04-25T14:26:38;9.63;;;1.20;;
55172;SDS011;41061;52.822;6.860;2023-04-25T14:29:04;6.50;;;0.93;;
55172;SDS011;41061;52.822;6.860;2023-04-25T14:31:31;3.85;;;0.98;;
55172;SDS011;41061;52.822;6.860;2023-04-25T14:33:57;4.95;;;1.10;;
55172;SDS011;41061;52.822;6.860;2023-04-25T14:36:22;4.75;;;1.33;;
55172;SDS011;41061;52.822;6.860;2023-04-25T14:38:48;10.48;;;1.42;;
55172;SDS011;41061;52.822;6.860;2023-04-25T14:41:14;7.30;;;1.23;;
55172;SDS011;41061;52.822;6.860;2023-04-25T14:43:40;7.60;;;1.30;;
55172;SDS011;41061;52.822;6.860;2023-04-25T14:46:06;3.75;;;0.80;;
55172;SDS011;41061;52.822;6.860;2023-04-25T14:48:32;3.90;;;1.10;;
55172;SDS011;41061;52.822;6.860;2023-04-25T14:50:59;5.28;;;1.35;;
55172;SDS011;41061;52.822;6.860;2023-04-25T14:53:25;3.92;;;1.02;;
55172;SDS011;41061;52.822;6.860;2023-04-25T14:55:52;2.22;;;0.77;;
55172;SDS011;41061;52.822;6.860;2023-04-25T14:58:18;4.10;;;1.00;;